Aeroporto :
LOGIN :

Iscrizione | Disclaimer

   EN    FR    IT 

 










Sommario :    VFR   VFR Marginale   IFR   IFR Intensivo   IFR Molto Intensivo
Visibilità : 
Base nubi : 
>= 8 km
>= 3000ft
5 / 8 km
1000 / 3000 ft
1500m / 5 km
500 / 1000 ft
800 / 1500m
200 / 500 ft
< 800m
< 200 ft
Simboli :   Temporali  Nebbia  Neve Forte  Precipitazioni Forti  Vento > 20 kt
SIGMETs :   Varie  Temporali  Ghiacco  Turbolenza  Onda orograficha  Ceneri Vulcaniche






- Altitudine del aeroporto : 913 ft


LFSX - Luxeuil

ULTIMO METAR :
  • 181100Z AUTO 02004KT 340V050 9999 SCT048 OVC062 20/16 Q1013

METARs OBSOLETI :
  • 181030Z AUTO 36006KT 9999 -RA ///TCU 20/16 Q1013
  • 181000Z AUTO 35004KT CAVOK 21/16 Q1013
  • 180930Z AUTO 36003KT 300V050 CAVOK 21/15 Q1014
  • 180900Z AUTO 01003KT 310V090 CAVOK 21/16 Q1013
  • 180830Z AUTO VRB03KT 9999 FEW041 OVC078 20/17 Q1014

TAF TAF LFSX
Valido dal 18 a 09 ore il 19 a 09 ore UTC


180800Z 1809/1909 09005KT CAVOK
TEMPO 1816/1819 3000 SHRA BKN030CB



MetMap, La meteo Aeronautica in un colpo d'occhio ! - Copyright ORBIFLY Dicembre 2007 - Disclaimer

ORBIFLY MET'MAP TEAM :

Programmazione e sviluppo : Alexandra Zaïnal
Concezione : Baudouin d'Aumeries
Supporto tecnico e logistico : Manuel Goepfert
Aiuto : Marc-Olivier Méhu
Aiuto per la traduzione : Arnaldo La Scala




FONTI E CREDITI :

   NOAA